createdAt,value
2018-09-14T00:00:15.102Z,16.11
2018-09-14T00:01:15.292Z,16.08
2018-09-14T00:02:15.483Z,16.07
2018-09-14T00:03:15.678Z,16.09
2018-09-14T00:04:15.866Z,16.12
2018-09-14T00:05:16.056Z,16.12
2018-09-14T00:06:16.245Z,16.05
2018-09-14T00:07:16.435Z,16.08
2018-09-14T00:08:16.626Z,15.94
2018-09-14T00:09:16.817Z,15.94
2018-09-14T00:10:17.013Z,16.05
2018-09-14T00:11:17.202Z,15.90
2018-09-14T00:12:17.394Z,15.90
2018-09-14T00:13:17.588Z,15.96
2018-09-14T00:14:17.774Z,15.93
2018-09-14T00:15:17.967Z,15.89
2018-09-14T00:16:18.154Z,15.94
2018-09-14T00:17:18.350Z,15.93
2018-09-14T00:18:18.547Z,15.89
2018-09-14T00:19:18.730Z,15.71
2018-09-14T00:20:18.923Z,15.62
2018-09-14T00:21:19.113Z,15.59
2018-09-14T00:22:19.302Z,15.67
2018-09-14T00:23:19.494Z,15.76
2018-09-14T00:24:19.686Z,15.69
2018-09-14T00:25:19.877Z,15.78
2018-09-14T00:26:20.066Z,15.83
2018-09-14T00:27:20.260Z,15.80
2018-09-14T00:28:20.448Z,15.94
2018-09-14T00:29:20.639Z,16.01
2018-09-14T00:30:20.828Z,16.05
2018-09-14T00:31:21.025Z,15.92
2018-09-14T00:32:21.209Z,15.93
2018-09-14T00:33:21.403Z,15.94
2018-09-14T00:34:21.593Z,16.04
2018-09-14T00:35:21.782Z,16.01
2018-09-14T00:36:21.974Z,15.94
2018-09-14T00:37:22.165Z,15.97
2018-09-14T00:38:22.357Z,15.97
2018-09-14T00:39:22.545Z,15.96
2018-09-14T00:40:22.737Z,15.97
2018-09-14T00:41:22.931Z,15.94
2018-09-14T00:42:23.119Z,15.87
2018-09-14T00:43:23.308Z,15.71
2018-09-14T00:44:23.495Z,15.75
2018-09-14T00:45:23.685Z,15.67
2018-09-14T00:46:23.873Z,15.60
2018-09-14T00:47:24.060Z,15.60
2018-09-14T00:48:24.252Z,15.68
2018-09-14T00:49:24.444Z,15.78
2018-09-14T00:50:24.629Z,15.80
2018-09-14T00:51:24.822Z,15.86
2018-09-14T00:52:25.011Z,15.82
2018-09-14T00:53:25.206Z,15.75
2018-09-14T00:54:25.405Z,15.75
2018-09-14T00:55:25.586Z,15.80
2018-09-14T00:56:25.773Z,15.82
2018-09-14T00:57:25.962Z,15.72
2018-09-14T00:58:26.150Z,15.84
2018-09-14T00:59:26.334Z,15.71
2018-09-14T01:00:26.525Z,15.86
2018-09-14T01:01:26.718Z,15.80
2018-09-14T01:02:26.903Z,15.65
2018-09-14T01:03:27.099Z,15.60
2018-09-14T01:04:27.297Z,15.54
2018-09-14T01:05:27.483Z,15.50
2018-09-14T01:06:27.670Z,15.50
2018-09-14T01:07:27.865Z,15.53
2018-09-14T01:08:28.055Z,15.51
2018-09-14T01:09:28.247Z,15.44
2018-09-14T01:10:28.435Z,15.44
2018-09-14T01:11:28.627Z,15.35
2018-09-14T01:12:28.816Z,15.44
2018-09-14T01:13:29.005Z,15.43
2018-09-14T01:14:29.196Z,15.38
2018-09-14T01:15:29.380Z,15.27
2018-09-14T01:16:29.574Z,15.31
2018-09-14T01:17:29.764Z,15.32
2018-09-14T01:18:29.951Z,15.34
2018-09-14T01:19:30.143Z,15.43
2018-09-14T01:20:30.333Z,15.43
2018-09-14T01:21:30.524Z,15.41
2018-09-14T01:22:30.712Z,15.36
2018-09-14T01:23:30.907Z,15.47
2018-09-14T01:24:31.111Z,15.44
2018-09-14T01:25:31.296Z,15.34
2018-09-14T01:26:31.491Z,15.44
2018-09-14T01:27:31.721Z,15.39
2018-09-14T01:28:31.866Z,15.31
2018-09-14T01:29:32.061Z,15.34
2018-09-14T01:30:32.246Z,15.39
2018-09-14T01:31:32.445Z,15.32
2018-09-14T01:32:32.633Z,15.28
2018-09-14T01:33:32.835Z,15.32
2018-09-14T01:34:33.015Z,15.34
2018-09-14T01:35:33.205Z,15.36
2018-09-14T01:36:33.395Z,15.34
2018-09-14T01:37:33.587Z,15.34
2018-09-14T01:38:33.769Z,15.32
2018-09-14T01:39:33.963Z,15.32
2018-09-14T01:40:34.152Z,15.31
2018-09-14T01:41:34.343Z,15.20
2018-09-14T01:42:34.531Z,15.11
2018-09-14T01:43:34.719Z,15.16
2018-09-14T01:44:34.911Z,15.17
2018-09-14T01:45:35.105Z,15.25
2018-09-14T01:46:35.294Z,15.27
2018-09-14T01:47:35.481Z,15.23
2018-09-14T01:48:35.680Z,15.23
2018-09-14T01:49:35.862Z,15.14
2018-09-14T01:50:36.054Z,15.13
2018-09-14T01:51:36.244Z,15.11
2018-09-14T01:52:36.433Z,15.11
2018-09-14T01:53:36.622Z,15.19
2018-09-14T01:54:36.823Z,15.14
2018-09-14T01:55:37.002Z,15.17
2018-09-14T01:56:37.193Z,15.20
2018-09-14T01:57:37.382Z,15.29
2018-09-14T01:58:37.574Z,15.19
2018-09-14T01:59:37.757Z,15.29
2018-09-14T02:00:37.957Z,15.29
2018-09-14T02:01:38.139Z,15.32
2018-09-14T02:02:38.328Z,15.20
2018-09-14T02:03:38.518Z,15.25
2018-09-14T02:04:38.711Z,15.19
2018-09-14T02:05:38.896Z,15.23
2018-09-14T02:06:39.093Z,15.21
2018-09-14T02:07:39.287Z,15.31
2018-09-14T02:08:39.472Z,15.35
2018-09-14T02:09:39.661Z,15.34
2018-09-14T02:10:39.847Z,15.29
2018-09-14T02:11:40.037Z,15.29
2018-09-14T02:12:40.228Z,15.29
2018-09-14T02:13:40.416Z,15.34
2018-09-14T02:14:40.612Z,15.32
2018-09-14T02:15:40.795Z,15.29
2018-09-14T02:16:40.992Z,15.29
2018-09-14T02:17:41.176Z,15.21
2018-09-14T02:18:41.364Z,15.20
2018-09-14T02:19:41.548Z,15.27
2018-09-14T02:20:41.737Z,15.36
2018-09-14T02:21:41.927Z,15.20
2018-09-14T02:22:42.122Z,15.19
2018-09-14T02:23:42.314Z,15.25
2018-09-14T02:24:42.507Z,15.29
2018-09-14T02:25:42.714Z,15.27
2018-09-14T02:26:42.897Z,15.41
2018-09-14T02:27:43.081Z,15.41
2018-09-14T02:28:43.274Z,15.49
2018-09-14T02:29:43.465Z,15.34
2018-09-14T02:30:43.651Z,15.29
2018-09-14T02:31:43.838Z,15.21
2018-09-14T02:32:44.032Z,15.19
2018-09-14T02:33:44.219Z,15.21
2018-09-14T02:34:44.413Z,15.17
2018-09-14T02:35:44.602Z,15.25
2018-09-14T02:36:44.798Z,15.35
2018-09-14T02:37:44.995Z,15.38
2018-09-14T02:38:45.186Z,15.36
2018-09-14T02:39:45.370Z,15.41
2018-09-14T02:40:45.561Z,15.39
2018-09-14T02:41:45.755Z,15.34
2018-09-14T02:42:45.957Z,15.49
2018-09-14T02:43:46.140Z,15.36
2018-09-14T02:44:46.333Z,15.36
2018-09-14T02:45:46.518Z,15.34
2018-09-14T02:46:46.714Z,15.36
2018-09-14T02:47:46.902Z,15.43
2018-09-14T02:48:47.097Z,15.36
2018-09-14T02:49:47.281Z,15.43
2018-09-14T02:50:47.474Z,15.35
2018-09-14T02:51:47.660Z,15.32
2018-09-14T02:52:47.850Z,15.32
2018-09-14T02:53:48.041Z,15.32
2018-09-14T02:54:48.227Z,15.35
2018-09-14T02:55:48.418Z,15.27
2018-09-14T02:56:48.611Z,15.36
2018-09-14T02:57:48.804Z,15.35
2018-09-14T02:58:49.000Z,15.20
2018-09-14T02:59:49.188Z,15.19
2018-09-14T03:00:49.376Z,14.99
2018-09-14T03:01:49.572Z,15.21
2018-09-14T03:02:49.762Z,15.13
2018-09-14T03:03:49.950Z,15.16
2018-09-14T03:04:50.145Z,15.27
2018-09-14T03:05:50.340Z,15.20
2018-09-14T03:06:50.524Z,15.32
2018-09-14T03:07:50.719Z,15.23
2018-09-14T03:08:50.904Z,15.20
2018-09-14T03:09:51.093Z,15.21
2018-09-14T03:10:51.281Z,15.20
2018-09-14T03:11:51.479Z,15.25
2018-09-14T03:12:51.671Z,15.29
2018-09-14T03:13:51.860Z,15.36
2018-09-14T03:14:52.053Z,15.28
2018-09-14T03:15:52.242Z,15.44
2018-09-14T03:16:52.435Z,15.39
2018-09-14T03:17:52.623Z,15.43
2018-09-14T03:18:52.812Z,15.46
2018-09-14T03:19:53.002Z,15.39
2018-09-14T03:20:53.189Z,15.43
2018-09-14T03:21:53.382Z,15.27
2018-09-14T03:22:53.573Z,15.34
2018-09-14T03:23:53.759Z,15.38
2018-09-14T03:24:53.949Z,15.34
2018-09-14T03:25:54.150Z,15.34
2018-09-14T03:26:54.347Z,15.31
2018-09-14T03:27:54.537Z,15.35
2018-09-14T03:28:54.724Z,15.44
2018-09-14T03:29:54.911Z,15.50
2018-09-14T03:30:55.103Z,15.39
2018-09-14T03:31:55.290Z,15.39
2018-09-14T03:32:55.488Z,15.27
2018-09-14T03:33:55.681Z,15.39
2018-09-14T03:34:55.869Z,15.28
2018-09-14T03:35:56.061Z,15.23
2018-09-14T03:36:56.253Z,15.17
2018-09-14T03:37:56.444Z,15.20
2018-09-14T03:38:56.644Z,15.17
2018-09-14T03:39:56.823Z,15.10
2018-09-14T03:40:57.012Z,14.99
2018-09-14T03:41:57.218Z,15.07
2018-09-14T03:42:57.402Z,15.16
2018-09-14T03:43:57.594Z,15.21
2018-09-14T03:44:57.787Z,15.27
2018-09-14T03:45:57.975Z,15.38
2018-09-14T03:46:58.164Z,15.25
2018-09-14T03:47:58.352Z,15.35
2018-09-14T03:48:58.538Z,15.17
2018-09-14T03:49:58.731Z,15.19
2018-09-14T03:50:58.917Z,15.20
2018-09-14T03:51:59.104Z,15.25
2018-09-14T03:52:59.297Z,15.19
2018-09-14T03:53:59.488Z,15.31
2018-09-14T03:54:59.680Z,15.35
2018-09-14T03:55:59.872Z,15.35
2018-09-14T03:57:00.065Z,15.28
2018-09-14T03:58:00.253Z,15.17
2018-09-14T03:59:00.440Z,15.19
2018-09-14T04:00:00.633Z,15.31
2018-09-14T04:01:00.820Z,15.28
2018-09-14T04:02:01.009Z,15.44
2018-09-14T04:03:01.198Z,15.39
2018-09-14T04:04:01.386Z,15.32
2018-09-14T04:05:01.576Z,15.23
2018-09-14T04:06:01.768Z,15.32
2018-09-14T04:07:01.953Z,15.21
2018-09-14T04:08:02.147Z,15.27
2018-09-14T04:09:02.341Z,15.16
2018-09-14T04:10:02.529Z,15.10
2018-09-14T04:11:02.724Z,15.20
2018-09-14T04:12:02.910Z,15.21
2018-09-14T04:13:03.104Z,15.27
2018-09-14T04:14:03.297Z,15.28
2018-09-14T04:15:03.486Z,15.16
2018-09-14T04:16:03.675Z,15.14
2018-09-14T04:17:03.869Z,15.28
2018-09-14T04:18:04.061Z,15.13
2018-09-14T04:19:04.254Z,15.17
2018-09-14T04:20:04.445Z,15.09
2018-09-14T04:21:04.631Z,15.03
2018-09-14T04:22:04.820Z,14.83
2018-09-14T04:23:05.008Z,14.91
2018-09-14T04:24:05.202Z,15.03
2018-09-14T04:25:05.393Z,15.02
2018-09-14T04:26:05.583Z,14.92
2018-09-14T04:27:05.775Z,14.89
2018-09-14T04:28:05.962Z,14.94
2018-09-14T04:29:06.153Z,14.94
2018-09-14T04:30:06.343Z,14.86
2018-09-14T04:31:06.532Z,14.84
2018-09-14T04:32:06.725Z,14.88
2018-09-14T04:33:06.913Z,14.84
2018-09-14T04:34:07.100Z,14.84
2018-09-14T04:35:07.289Z,14.88
2018-09-14T04:36:07.481Z,14.83
2018-09-14T04:37:07.672Z,14.80
2018-09-14T04:38:07.926Z,14.83
2018-09-14T04:39:08.056Z,14.84
2018-09-14T04:40:08.245Z,14.94
2018-09-14T04:41:08.434Z,14.91
2018-09-14T04:42:08.622Z,14.92
2018-09-14T04:43:08.814Z,14.98
2018-09-14T04:44:09.001Z,15.01
2018-09-14T04:45:09.187Z,14.89
2018-09-14T04:46:09.377Z,14.62
2018-09-14T04:47:09.571Z,14.65
2018-09-14T04:48:10.684Z,14.70
2018-09-14T04:49:10.759Z,14.72
2018-09-14T04:50:10.683Z,14.78
2018-09-14T04:51:10.252Z,14.80
2018-09-14T04:52:10.441Z,14.81
2018-09-14T04:53:10.689Z,14.78
2018-09-14T04:54:10.841Z,14.78
2018-09-14T04:55:11.016Z,14.77
2018-09-14T04:56:11.204Z,14.83
2018-09-14T04:57:11.446Z,14.83
2018-09-14T04:58:11.701Z,14.86
2018-09-14T04:59:11.730Z,14.73
2018-09-14T05:00:11.934Z,14.78
2018-09-14T05:01:12.119Z,14.80
2018-09-14T05:02:12.305Z,14.72
2018-09-14T05:03:12.507Z,14.78
2018-09-14T05:04:12.688Z,14.62
2018-09-14T05:05:12.881Z,14.78
2018-09-14T05:06:13.078Z,14.80
2018-09-14T05:07:13.275Z,14.83
2018-09-14T05:08:13.456Z,14.88
2018-09-14T05:09:13.648Z,14.78
2018-09-14T05:10:13.833Z,14.80
2018-09-14T05:11:14.024Z,14.84
2018-09-14T05:12:14.224Z,14.84
2018-09-14T05:13:14.414Z,14.72
2018-09-14T05:14:14.643Z,14.73
2018-09-14T05:15:14.801Z,14.60
2018-09-14T05:16:14.995Z,14.50
2018-09-14T05:17:15.178Z,14.57
2018-09-14T05:18:15.367Z,14.58
2018-09-14T05:19:15.560Z,14.54
2018-09-14T05:20:15.747Z,14.62
2018-09-14T05:21:15.932Z,14.65
2018-09-14T05:22:16.132Z,14.69
2018-09-14T05:23:16.314Z,14.68
2018-09-14T05:24:16.531Z,14.65
2018-09-14T05:25:16.692Z,14.69
2018-09-14T05:26:16.884Z,14.62
2018-09-14T05:27:17.074Z,14.62
2018-09-14T05:28:17.263Z,14.78
2018-09-14T05:29:17.450Z,14.78
2018-09-14T05:30:17.643Z,14.72
2018-09-14T05:31:17.822Z,14.80
2018-09-14T05:32:18.014Z,14.73
2018-09-14T05:33:18.204Z,14.73
2018-09-14T05:34:18.396Z,14.80
2018-09-14T05:35:18.581Z,14.80
2018-09-14T05:36:18.770Z,14.88
2018-09-14T05:37:18.962Z,14.86
2018-09-14T05:38:19.161Z,14.89
2018-09-14T05:39:19.347Z,14.83
2018-09-14T05:40:19.533Z,14.88
2018-09-14T05:41:19.719Z,14.88
2018-09-14T05:42:19.907Z,14.81
2018-09-14T05:43:20.106Z,14.83
2018-09-14T05:44:20.304Z,14.60
2018-09-14T05:45:20.489Z,14.77
2018-09-14T05:46:20.676Z,14.84
2018-09-14T05:47:20.867Z,14.84
2018-09-14T05:48:21.051Z,14.84
2018-09-14T05:49:21.244Z,14.92
2018-09-14T05:50:21.436Z,14.84
2018-09-14T05:51:21.627Z,14.60
2018-09-14T05:52:21.819Z,14.52
2018-09-14T05:53:22.003Z,14.64
2018-09-14T05:54:22.243Z,14.69
2018-09-14T05:55:22.387Z,14.86
2018-09-14T05:56:22.575Z,14.77
2018-09-14T05:57:22.765Z,14.69
2018-09-14T05:58:22.956Z,14.73
2018-09-14T05:59:23.154Z,14.83
2018-09-14T06:00:23.346Z,14.80
2018-09-14T06:01:23.541Z,14.69
2018-09-14T06:02:23.729Z,14.72
2018-09-14T06:03:23.916Z,14.61
2018-09-14T06:04:24.117Z,14.73
2018-09-14T06:05:24.312Z,14.83
2018-09-14T06:06:24.575Z,14.89
2018-09-14T06:07:24.680Z,15.01
2018-09-14T06:08:24.864Z,14.83
2018-09-14T06:09:25.056Z,14.77
2018-09-14T06:10:25.246Z,14.84
2018-09-14T06:11:25.431Z,14.80
2018-09-14T06:12:25.627Z,14.84
2018-09-14T06:13:25.810Z,14.80
2018-09-14T06:14:26.003Z,14.89
2018-09-14T06:15:26.209Z,14.95
2018-09-14T06:16:26.389Z,14.94
2018-09-14T06:17:26.578Z,14.98
2018-09-14T06:18:26.766Z,15.02
2018-09-14T06:19:26.960Z,15.06
2018-09-14T06:20:27.152Z,15.09
2018-09-14T06:21:27.337Z,14.98
2018-09-14T06:22:27.540Z,15.06
2018-09-14T06:23:27.719Z,15.09
2018-09-14T06:24:27.909Z,15.03
2018-09-14T06:25:28.103Z,15.03
2018-09-14T06:26:28.285Z,15.02
2018-09-14T06:27:28.476Z,14.78
2018-09-14T06:28:28.674Z,14.84
2018-09-14T06:29:28.862Z,14.80
2018-09-14T06:30:29.103Z,14.86
2018-09-14T06:31:29.241Z,14.96
2018-09-14T06:32:29.435Z,14.98
2018-09-14T06:33:29.621Z,15.11
2018-09-14T06:34:29.811Z,15.13
2018-09-14T06:35:30.001Z,15.20
2018-09-14T06:36:30.196Z,15.16
2018-09-14T06:37:30.382Z,15.39
2018-09-14T06:38:30.570Z,15.27
2018-09-14T06:39:30.771Z,15.10
2018-09-14T06:40:30.960Z,15.09
2018-09-14T06:41:31.148Z,15.03
2018-09-14T06:42:31.339Z,15.02
2018-09-14T06:43:31.535Z,15.06
2018-09-14T06:44:31.722Z,15.09
2018-09-14T06:45:31.994Z,15.21
2018-09-14T06:46:32.106Z,15.01
2018-09-14T06:47:32.295Z,15.03
2018-09-14T06:48:32.486Z,15.10
2018-09-14T06:49:32.677Z,15.17
2018-09-14T06:50:32.867Z,15.20
2018-09-14T06:51:33.049Z,14.95
2018-09-14T06:52:33.241Z,14.84
2018-09-14T06:53:33.427Z,14.84
2018-09-14T06:54:33.618Z,14.75
2018-09-14T06:55:33.813Z,14.84
2018-09-14T06:56:34.000Z,14.80
2018-09-14T06:57:34.193Z,14.96
2018-09-14T06:58:34.379Z,14.95
2018-09-14T06:59:34.567Z,15.10
2018-09-14T07:00:34.779Z,15.20
2018-09-14T07:01:34.958Z,15.20
2018-09-14T07:02:35.143Z,15.09
2018-09-14T07:03:35.332Z,15.16
2018-09-14T07:04:35.521Z,15.16
2018-09-14T07:05:35.709Z,15.10
2018-09-14T07:06:35.924Z,15.11
2018-09-14T07:07:36.089Z,15.02
2018-09-14T07:08:36.277Z,15.20
2018-09-14T07:09:36.469Z,15.17
2018-09-14T07:10:36.657Z,15.32
2018-09-14T07:11:36.875Z,15.17
2018-09-14T07:12:37.037Z,15.29
2018-09-14T07:13:37.224Z,15.29
2018-09-14T07:14:37.414Z,15.32
2018-09-14T07:15:37.606Z,15.31
2018-09-14T07:16:37.797Z,15.50
2018-09-14T07:17:37.988Z,15.34
2018-09-14T07:18:38.184Z,15.53
2018-09-14T07:19:38.369Z,15.44
2018-09-14T07:20:38.553Z,15.51
2018-09-14T07:21:38.804Z,15.38
2018-09-14T07:22:38.936Z,15.59
2018-09-14T07:23:39.122Z,15.71
2018-09-14T07:24:39.379Z,15.78
2018-09-14T07:25:39.506Z,15.87
2018-09-14T07:26:39.696Z,16.00
2018-09-14T07:27:39.892Z,16.04
2018-09-14T07:28:40.103Z,16.05
2018-09-14T07:29:40.269Z,16.01
2018-09-14T07:30:40.470Z,16.23
2018-09-14T07:31:40.761Z,16.50
2018-09-14T07:32:40.854Z,16.31
2018-09-14T07:33:41.048Z,16.07
2018-09-14T07:34:41.233Z,16.25
2018-09-14T07:35:41.424Z,16.25
2018-09-14T07:36:41.612Z,15.93
2018-09-14T07:37:41.811Z,15.89
2018-09-14T07:38:42.001Z,16.04
2018-09-14T07:39:42.199Z,16.34
2018-09-14T07:40:42.404Z,16.56
2018-09-14T07:41:42.592Z,16.81
2018-09-14T07:42:42.784Z,16.82
2018-09-14T07:43:42.973Z,16.76
2018-09-14T07:44:43.164Z,17.11
2018-09-14T07:45:43.365Z,17.26
2018-09-14T07:46:43.561Z,17.14
2018-09-14T07:47:43.753Z,17.21
2018-09-14T07:48:43.946Z,17.18
2018-09-14T07:49:44.134Z,17.28
2018-09-14T07:50:44.327Z,16.94
2018-09-14T07:51:44.515Z,16.78
2018-09-14T07:52:44.710Z,17.06
2018-09-14T07:53:44.901Z,17.37
2018-09-14T07:54:45.089Z,17.70
2018-09-14T07:55:45.286Z,17.99
2018-09-14T07:56:45.494Z,18.15
2018-09-14T07:57:45.667Z,17.84
2018-09-14T07:58:45.857Z,17.51
2018-09-14T07:59:46.049Z,17.46
2018-09-14T08:00:46.247Z,17.87
2018-09-14T08:01:46.432Z,18.20
2018-09-14T08:02:46.628Z,18.48
2018-09-14T08:03:46.818Z,18.69
2018-09-14T08:04:47.005Z,18.87
2018-09-14T08:05:47.200Z,19.16
2018-09-14T08:06:47.393Z,19.50
2018-09-14T08:07:47.584Z,19.77
2018-09-14T08:08:47.780Z,19.71
2018-09-14T08:09:47.971Z,19.66
2018-09-14T08:10:48.165Z,19.37
2018-09-14T08:11:48.390Z,19.33
2018-09-14T08:12:48.548Z,19.40
2018-09-14T08:13:48.740Z,19.28
2018-09-14T08:14:48.944Z,19.07
2018-09-14T08:15:49.129Z,18.67
2018-09-14T08:16:49.325Z,18.87
2018-09-14T08:17:49.517Z,18.65
2018-09-14T08:18:49.707Z,18.75
2018-09-14T08:19:49.911Z,18.84
2018-09-14T08:20:50.129Z,19.00
2018-09-14T08:21:50.429Z,18.88
2018-09-14T08:22:50.512Z,18.65
2018-09-14T08:23:50.714Z,18.84
2018-09-14T08:24:50.907Z,19.00
2018-09-14T08:25:51.113Z,18.57
2018-09-14T08:26:51.391Z,18.80
2018-09-14T08:27:51.494Z,19.08
2018-09-14T08:28:51.695Z,19.23
2018-09-14T08:29:51.885Z,19.39
2018-09-14T08:30:52.086Z,19.81
2018-09-14T08:31:52.279Z,19.84
2018-09-14T08:32:52.475Z,20.03
2018-09-14T08:33:52.683Z,21.16
2018-09-14T08:34:52.877Z,21.69
2018-09-14T08:35:53.077Z,21.83
2018-09-14T08:36:53.272Z,21.84
2018-09-14T08:37:53.465Z,22.06
2018-09-14T08:38:53.663Z,22.06
2018-09-14T08:39:53.857Z,22.17
2018-09-14T08:40:54.054Z,22.20
2018-09-14T08:41:54.247Z,21.98
2018-09-14T08:42:54.444Z,21.84
2018-09-14T08:43:54.638Z,21.16
2018-09-14T08:44:54.834Z,20.41
2018-09-14T08:45:55.033Z,20.67
2018-09-14T08:46:55.229Z,21.01
2018-09-14T08:47:55.456Z,21.42
2018-09-14T08:48:55.628Z,21.32
2018-09-14T08:49:55.825Z,21.40
2018-09-14T08:50:56.019Z,21.09
2018-09-14T08:51:56.217Z,20.88
2018-09-14T08:52:56.413Z,20.94
2018-09-14T08:53:56.606Z,22.03
2018-09-14T08:54:56.805Z,22.98
2018-09-14T08:55:57.002Z,24.18
2018-09-14T08:56:57.200Z,24.67
2018-09-14T08:57:57.408Z,24.98
2018-09-14T08:58:57.599Z,25.08
2018-09-14T08:59:57.800Z,26.02
2018-09-14T09:00:58.056Z,23.36
2018-09-14T09:01:58.198Z,24.03
2018-09-14T09:02:58.403Z,24.31
2018-09-14T09:03:58.657Z,25.21
2018-09-14T09:04:58.804Z,24.25
2018-09-14T09:05:59.014Z,23.13
2018-09-14T09:06:59.204Z,23.80
2018-09-14T09:07:59.410Z,24.45
2018-09-14T09:08:59.625Z,24.93
2018-09-14T09:09:59.807Z,25.30
2018-09-14T09:11:00.009Z,25.35
2018-09-14T09:12:00.215Z,25.85
2018-09-14T09:13:00.414Z,25.83
2018-09-14T09:14:00.616Z,25.33
2018-09-14T09:15:00.818Z,25.15
2018-09-14T09:16:01.017Z,25.79
2018-09-14T09:17:01.217Z,26.07
2018-09-14T09:18:01.417Z,26.73
2018-09-14T09:19:01.620Z,26.72
2018-09-14T09:20:01.831Z,26.13
2018-09-14T09:21:02.040Z,25.82
2018-09-14T09:22:02.244Z,25.98
2018-09-14T09:23:02.448Z,26.01
2018-09-14T09:24:02.648Z,26.60
2018-09-14T09:25:02.849Z,26.45
2018-09-14T09:26:03.051Z,26.52
2018-09-14T09:27:03.263Z,26.97
2018-09-14T09:28:03.465Z,26.89
2018-09-14T09:29:03.663Z,25.94
2018-09-14T09:30:03.868Z,25.58
2018-09-14T09:31:04.076Z,26.28
2018-09-14T09:32:04.277Z,27.25
2018-09-14T09:33:04.477Z,27.78
2018-09-14T09:34:04.680Z,27.14
2018-09-14T09:35:04.878Z,26.84
2018-09-14T09:36:05.090Z,26.69
2018-09-14T09:37:05.289Z,25.97
2018-09-14T09:38:05.494Z,26.23
2018-09-14T09:39:05.710Z,26.48
2018-09-14T09:40:05.919Z,26.60
2018-09-14T09:41:06.125Z,26.92
2018-09-14T09:42:06.328Z,26.37
2018-09-14T09:43:06.608Z,25.83
2018-09-14T09:44:06.747Z,25.20
2018-09-14T09:45:06.929Z,25.98
2018-09-14T09:46:07.132Z,26.55
2018-09-14T09:47:07.338Z,26.67
2018-09-14T09:48:07.545Z,26.97
2018-09-14T09:49:07.743Z,26.77
2018-09-14T09:50:07.944Z,25.94
2018-09-14T09:51:08.189Z,25.76
2018-09-14T09:52:08.352Z,24.43
2018-09-14T09:53:08.554Z,24.91
2018-09-14T09:54:08.760Z,25.43
2018-09-14T09:55:08.961Z,25.94
2018-09-14T09:56:09.167Z,26.43
2018-09-14T09:57:09.377Z,27.21
2018-09-14T09:58:09.571Z,27.50
2018-09-14T09:59:09.773Z,27.44
2018-09-14T10:00:09.978Z,28.00
2018-09-14T10:01:10.185Z,28.25
2018-09-14T10:02:10.385Z,28.52
2018-09-14T10:03:10.592Z,28.78
2018-09-14T10:04:10.872Z,28.68
2018-09-14T10:05:11.005Z,28.00
2018-09-14T10:06:11.208Z,27.69
2018-09-14T10:07:11.412Z,28.09
2018-09-14T10:08:11.619Z,28.03
2018-09-14T10:09:11.824Z,27.70
2018-09-14T10:10:12.035Z,27.34
2018-09-14T10:11:12.243Z,27.97
2018-09-14T10:12:12.444Z,28.18
2018-09-14T10:13:12.653Z,27.55
2018-09-14T10:14:12.918Z,26.94
2018-09-14T10:15:13.056Z,27.47
2018-09-14T10:16:13.259Z,27.67
2018-09-14T10:17:13.456Z,26.94
2018-09-14T10:18:13.652Z,26.92
2018-09-14T10:19:13.872Z,27.27
2018-09-14T10:20:14.068Z,26.43
2018-09-14T10:21:14.391Z,25.98
2018-09-14T10:22:14.480Z,27.09
2018-09-14T10:23:14.684Z,26.60
2018-09-14T10:24:14.888Z,26.25
2018-09-14T10:25:15.093Z,25.67
2018-09-14T10:26:15.292Z,24.84
2018-09-14T10:27:15.495Z,25.13
2018-09-14T10:28:15.694Z,25.23
2018-09-14T10:29:15.902Z,25.54
2018-09-14T10:30:16.095Z,25.32
2018-09-14T10:31:16.298Z,25.08
2018-09-14T10:32:16.499Z,24.99
2018-09-14T10:33:16.703Z,25.00
2018-09-14T10:34:16.918Z,24.88
2018-09-14T10:35:17.121Z,25.13
2018-09-14T10:36:17.320Z,24.76
2018-09-14T10:37:17.532Z,24.18
2018-09-14T10:38:17.732Z,22.86
2018-09-14T10:39:17.933Z,23.00
2018-09-14T10:40:18.145Z,22.95
2018-09-14T10:41:18.333Z,22.91
2018-09-14T10:42:18.547Z,22.92
2018-09-14T10:43:18.749Z,22.95
2018-09-14T10:44:18.949Z,23.39
2018-09-14T10:45:19.212Z,23.43
2018-09-14T10:46:19.353Z,23.53
2018-09-14T10:47:19.562Z,23.72
2018-09-14T10:48:19.757Z,23.25
2018-09-14T10:49:19.956Z,23.38
2018-09-14T10:50:20.148Z,23.22
2018-09-14T10:51:20.354Z,23.38
2018-09-14T10:52:20.597Z,23.27
2018-09-14T10:53:20.752Z,22.95
2018-09-14T10:54:20.960Z,22.58
2018-09-14T10:55:21.176Z,22.65
2018-09-14T10:56:21.366Z,22.47
2018-09-14T10:57:21.563Z,22.43
2018-09-14T10:58:21.763Z,22.46
2018-09-14T10:59:21.961Z,22.35
2018-09-14T11:00:22.155Z,22.60
2018-09-14T11:01:22.354Z,22.51
2018-09-14T11:02:22.566Z,22.45
2018-09-14T11:03:22.763Z,22.46
2018-09-14T11:04:22.974Z,22.57
2018-09-14T11:05:23.159Z,22.92
2018-09-14T11:06:23.357Z,23.31
2018-09-14T11:07:23.551Z,23.85
2018-09-14T11:08:23.754Z,24.39
2018-09-14T11:09:23.958Z,24.64
2018-09-14T11:10:24.155Z,24.00
2018-09-14T11:11:24.355Z,22.92
2018-09-14T11:12:24.552Z,23.43
2018-09-14T11:13:24.743Z,24.77
2018-09-14T11:14:24.939Z,24.96
2018-09-14T11:15:25.139Z,24.69
2018-09-14T11:16:25.337Z,25.25
2018-09-14T11:17:25.536Z,25.14
2018-09-14T11:18:25.791Z,24.53
2018-09-14T11:19:25.932Z,24.10
2018-09-14T11:20:26.161Z,25.65
2018-09-14T11:21:26.351Z,26.05
2018-09-14T11:22:26.555Z,26.57
2018-09-14T11:23:26.755Z,27.34
2018-09-14T11:24:26.942Z,27.47
2018-09-14T11:25:27.225Z,27.29
2018-09-14T11:26:27.335Z,27.00
2018-09-14T11:27:27.526Z,26.94
2018-09-14T11:28:27.722Z,27.34
2018-09-14T11:29:27.921Z,27.47
2018-09-14T11:30:28.119Z,27.55
2018-09-14T11:31:28.316Z,27.99
2018-09-14T11:32:28.576Z,26.91
2018-09-14T11:33:28.724Z,26.10
2018-09-14T11:34:28.931Z,27.02
2018-09-14T11:35:29.148Z,27.12
2018-09-14T11:36:29.349Z,27.00
2018-09-14T11:37:29.573Z,26.63
2018-09-14T11:38:29.885Z,26.75
2018-09-14T11:39:29.950Z,26.07
2018-09-14T11:40:30.155Z,25.69
2018-09-14T11:41:30.349Z,25.90
2018-09-14T11:42:30.550Z,27.02
2018-09-14T11:43:30.749Z,27.14
2018-09-14T11:44:31.022Z,27.03
2018-09-14T11:45:31.145Z,26.50
2018-09-14T11:46:31.375Z,26.20
2018-09-14T11:47:31.549Z,26.65
2018-09-14T11:48:31.742Z,26.85
2018-09-14T11:49:31.945Z,26.99
2018-09-14T11:50:32.139Z,26.58
2018-09-14T11:51:32.337Z,26.37
2018-09-14T11:52:32.532Z,26.58
2018-09-14T11:53:32.747Z,26.91
2018-09-14T11:54:32.929Z,26.99
2018-09-14T11:55:33.128Z,26.51
2018-09-14T11:56:33.335Z,25.75
2018-09-14T11:57:33.528Z,25.88
2018-09-14T11:58:33.732Z,26.21
2018-09-14T11:59:33.926Z,25.42
2018-09-14T12:00:34.125Z,24.93
2018-09-14T12:01:34.325Z,24.69
2018-09-14T12:02:34.522Z,24.46
2018-09-14T12:03:34.716Z,23.80
2018-09-14T12:04:34.914Z,23.02
2018-09-14T12:05:35.122Z,22.95
2018-09-14T12:06:35.319Z,23.04
2018-09-14T12:07:35.514Z,23.22
2018-09-14T12:08:35.712Z,22.98
2018-09-14T12:09:35.906Z,22.98
2018-09-14T12:10:36.108Z,23.02
2018-09-14T12:11:36.317Z,22.92
2018-09-14T12:12:36.515Z,22.61
2018-09-14T12:13:36.749Z,22.67
2018-09-14T12:14:36.910Z,22.75
2018-09-14T12:15:37.107Z,23.02
2018-09-14T12:16:37.302Z,23.35
2018-09-14T12:17:37.632Z,23.16
2018-09-14T12:18:37.711Z,23.07
2018-09-14T12:19:37.912Z,23.35
2018-09-14T12:20:38.105Z,24.02
2018-09-14T12:21:38.305Z,24.22
2018-09-14T12:22:38.510Z,23.97
2018-09-14T12:23:38.729Z,24.09
2018-09-14T12:24:38.900Z,24.00
2018-09-14T12:25:39.093Z,24.10
2018-09-14T12:26:39.358Z,24.46
2018-09-14T12:27:39.495Z,24.03
2018-09-14T12:28:39.693Z,23.79
2018-09-14T12:29:39.888Z,23.38
2018-09-14T12:30:40.081Z,23.35
2018-09-14T12:31:40.285Z,23.16
2018-09-14T12:32:40.480Z,23.68
2018-09-14T12:33:40.684Z,24.21
2018-09-14T12:34:40.884Z,24.45
2018-09-14T12:35:41.107Z,24.76
2018-09-14T12:36:41.277Z,24.87
2018-09-14T12:37:41.475Z,24.87
2018-09-14T12:38:41.667Z,24.46
2018-09-14T12:39:41.861Z,24.45
2018-09-14T12:40:42.059Z,24.16
2018-09-14T12:41:42.275Z,24.68
2018-09-14T12:42:42.453Z,24.65
2018-09-14T12:43:42.639Z,24.76
2018-09-14T12:44:42.836Z,24.65
2018-09-14T12:45:43.039Z,24.42
2018-09-14T12:46:43.238Z,24.08
2018-09-14T12:47:43.433Z,24.28
2018-09-14T12:48:43.637Z,24.64
2018-09-14T12:49:43.830Z,24.90
2018-09-14T12:50:44.020Z,25.08
2018-09-14T12:51:44.220Z,24.78
2018-09-14T12:52:44.411Z,24.31
2018-09-14T12:53:44.617Z,24.12
2018-09-14T12:54:44.813Z,24.05